METAR AND TAF INFORMATION
METAR FOR LEBB
ADDS - METARS form results

(0557 UTC 27 November 2021)
Data provider http://aviationweather.gov/metar/data/
 
METAR text: LEBB 270544Z 31013G23KT 280V350 9000 -RA FEW018 SCT026 BKN040 08/07 Q1002 RESHRA TEMPO 3000 SHRA SCT030TCU
Conditions at: LEBB (BILBAO/SONDICA , ES) observed 0544 UTC 27 November 2021
Temperature: 8.0°C (46°F)
Dewpoint: 7.0°C (45°F) [RH = 93%]
Pressure (altimeter): 29.59 inches Hg (1002.0 mb)
Winds: from the NW (310 degrees) at 15 MPH (13 knots; 6.7 m/s)
gusting to 26 MPH (23 knots; 11.8 m/s)
Visibility: 6 miles ( 9 km)
Ceiling: 4000 feet AGL
Clouds: few clouds at 1800 feet AGL
scattered clouds at 2600 feet AGL
broken clouds at 4000 feet AGL
Weather: -RA  (light rain)

METAR text: LEBB 270530Z 30017KT 270V330 6000 SHRA FEW018 SCT025TCU BKN035 08/07 Q1002 NOSIG
Conditions at: LEBB (BILBAO/SONDICA , ES) observed 0530 UTC 27 November 2021
Temperature: 8.0°C (46°F)
Dewpoint: 7.0°C (45°F) [RH = 93%]
Pressure (altimeter): 29.59 inches Hg (1002.0 mb)
Winds: from the WNW (300 degrees) at 20 MPH (17 knots; 8.7 m/s)
Visibility: 4 miles ( 6 km)
Ceiling: 3500 feet AGL
Clouds: few clouds at 1800 feet AGL
scattered clouds at 2500 feet AGL
broken clouds at 3500 feet AGL
Weather: SHRA  (rain showers)

METAR text: LEBB 270518Z 30021G35KT 260V330 6000 SHRA FEW018 BKN023 SCT025TCU 09/07 Q1002 NOSIG
Conditions at: LEBB (BILBAO/SONDICA , ES) observed 0518 UTC 27 November 2021
Temperature: 9.0°C (48°F)
Dewpoint: 7.0°C (45°F) [RH = 87%]
Pressure (altimeter): 29.59 inches Hg (1002.0 mb)
Winds: from the WNW (300 degrees) at 24 MPH (21 knots; 10.8 m/s)
gusting to 40 MPH (35 knots; 18.0 m/s)
Visibility: 4 miles ( 6 km)
Ceiling: 2300 feet AGL
Clouds: few clouds at 1800 feet AGL
broken clouds at 2300 feet AGL
scattered clouds at 2500 feet AGL
Weather: SHRA  (rain showers)

METAR text: LEBB 270500Z 30016KT 270V330 9000 TS -RA FEW020 FEW030CB BKN040 10/08 Q1001 TEMPO 3000 SHRA SCT030TCU
Conditions at: LEBB (BILBAO/SONDICA , ES) observed 0500 UTC 27 November 2021
Temperature: 10.0°C (50°F)
Dewpoint: 8.0°C (46°F) [RH = 87%]
Pressure (altimeter): 29.56 inches Hg (1001.0 mb)
Winds: from the WNW (300 degrees) at 18 MPH (16 knots; 8.2 m/s)
Visibility: 6 miles ( 9 km)
Ceiling: 4000 feet AGL
Clouds: few clouds at 2000 feet AGL
few clouds at 3000 feet AGL
broken clouds at 4000 feet AGL
Weather: TS -RA  (thunderstorm, light rain)

Forecast for: LEBB (BILBAO/SONDICA , ES)
Text: TAF LEBB 270500Z 2706/2806 30009KT 9999 SCT020 BKN035 TX06/2712Z TN04/2806Z
Forecast period: 0600 UTC 27 November 2021 to 0600 UTC 28 November 2021
Forecast type: FROM: standard forecast or significant change
Winds: from the WNW (300 degrees) at 10 MPH (9 knots; 4.6 m/s)
Visibility: 6 or more miles (10+ km)
Ceiling: 3500 feet AGL
Clouds: scattered clouds at 2000 feet AGL
broken clouds at 3500 feet AGL
Weather: no significant weather forecast for this period
Text: TEMPO 2706/2806 30019G34KT
Forecast period: 0600 UTC 27 November 2021 to 0600 UTC 28 November 2021
Forecast type: TEMPORARY: The following changes expected for less than half the time period
Winds: from the WNW (300 degrees) at 22 MPH (19 knots; 9.8 m/s)
gusting to 39 MPH (34 knots; 17.5 m/s)
Visibility: missing
Ceiling: unknown
Clouds: missing
Weather: no significant weather forecast for this period
Text: PROB30
Forecast period: 0600 to 1600 UTC 27 November 2021
Forecast type: TEMPORARY: The following changes expected for less than half the time period
Winds: from the WNW (300 degrees) at 29 MPH (25 knots; 12.9 m/s)
gusting to 49 MPH (43 knots; 22.1 m/s)
Visibility: missing
Ceiling: unknown
Clouds: missing
Weather: no significant weather forecast for this period
Text: TEMPO 2706/2716 30025G43KT
Forecast period: 0600 UTC 27 November 2021 to 0600 UTC 28 November 2021
Forecast type: TEMPORARY: The following changes expected for less than half the time period
Visibility: 1.86 miles (2.99 km)
Ceiling: 1000 feet AGL
Clouds: broken clouds at 1000 feet AGL
scattered clouds at 3000 feet AGL
Weather: RA SHRA  (moderate rain, rain showers)
Text: TEMPO 2706/2806 3000 RA SHRA BKN010 SCT030TCU
Forecast period: 0600 UTC 27 November 2021 to 0600 UTC 28 November 2021
Forecast type: TEMPORARY: The following changes expected for less than half the time period
Visibility: 0.93 miles (1.50 km)
Ceiling: 1000 feet AGL
Clouds: broken clouds at 1000 feet AGL
scattered clouds at 3000 feet AGL
scattered clouds at 3500 feet AGL
Weather: SHRA SHGR  (rain showers, hail showers)
Text: PROB40
Forecast period: 0600 UTC 27 November 2021 to 0600 UTC 28 November 2021
Forecast type: TEMPORARY: The following changes expected for less than half the time period
Visibility: missing
Ceiling: at least 12,000 feet AGL
Clouds: scattered clouds at 3000 feet AGL
Weather: TS  (thunderstorm)

 AIRPORT MAP

 RUNWAY INFORMATION
Runway 10 Runway length 6562 ft Runway width 148 ft
Runway elevation 116 ft Runway displaced threshold 0 ft Runway heading 97
Runway 28 Runway length 6562 ft Runway width 148 ft
Runway elevation 129 ft Runway displaced threshold 0 ft Runway heading 277
Runway 12 Runway length 8530 ft Runway width 148 ft
Runway elevation 119 ft Runway displaced threshold 0 ft Runway heading 117
Runway 30 Runway length 8530 ft Runway width 148 ft
Runway elevation 128 ft Runway displaced threshold 1509 ft Runway heading 297

 AIRPORT FREQUENCIES
Type APP Name APP Frequency 120.7 MHZ
Type ATIS Name ATIS Frequency 118.825 MHZ
Type GND Name GND Frequency 121.7 MHZ
Type TWR Name TWR Frequency 118.5 MHZ

 AIRPORT NEAR NAVIGATION AIDS
Type VOR-DME Name Bilbao Frequency 115900 KHZ





Powered by Virtual Airlines Manager

Maps by Rafael Santos